sensor_id;sensor_type;location;lat;lon;timestamp;P1;durP1;ratioP1;P2;durP2;ratioP2
30934;SDS011;51033;42.648;23.292;2023-05-29T00:01:24;4.65;;;3.42;;
30934;SDS011;51033;42.648;23.292;2023-05-29T00:03:51;6.00;;;3.42;;
30934;SDS011;51033;42.648;23.292;2023-05-29T00:06:17;4.40;;;3.35;;
30934;SDS011;51033;42.648;23.292;2023-05-29T00:08:44;6.25;;;3.50;;
30934;SDS011;51033;42.648;23.292;2023-05-29T00:11:09;6.35;;;3.15;;
30934;SDS011;51033;42.648;23.292;2023-05-29T00:13:35;4.95;;;3.35;;
30934;SDS011;51033;42.648;23.292;2023-05-29T00:16:00;4.78;;;3.28;;
30934;SDS011;51033;42.648;23.292;2023-05-29T00:18:26;4.40;;;3.75;;
30934;SDS011;51033;42.648;23.292;2023-05-29T00:20:52;3.78;;;3.38;;
30934;SDS011;51033;42.648;23.292;2023-05-29T00:23:18;4.18;;;3.75;;
30934;SDS011;51033;42.648;23.292;2023-05-29T00:25:44;6.45;;;3.78;;
30934;SDS011;51033;42.648;23.292;2023-05-29T00:28:09;4.55;;;3.58;;
30934;SDS011;51033;42.648;23.292;2023-05-29T00:30:36;3.80;;;3.20;;
30934;SDS011;51033;42.648;23.292;2023-05-29T00:33:02;7.15;;;4.03;;
30934;SDS011;51033;42.648;23.292;2023-05-29T00:35:28;9.55;;;4.57;;
30934;SDS011;51033;42.648;23.292;2023-05-29T00:37:53;5.95;;;4.10;;
30934;SDS011;51033;42.648;23.292;2023-05-29T00:40:18;5.05;;;4.00;;
30934;SDS011;51033;42.648;23.292;2023-05-29T00:42:44;3.75;;;3.38;;
30934;SDS011;51033;42.648;23.292;2023-05-29T00:45:09;7.70;;;3.72;;
30934;SDS011;51033;42.648;23.292;2023-05-29T00:47:35;7.75;;;3.47;;
30934;SDS011;51033;42.648;23.292;2023-05-29T00:50:02;6.78;;;3.70;;
30934;SDS011;51033;42.648;23.292;2023-05-29T00:52:28;4.57;;;3.67;;
30934;SDS011;51033;42.648;23.292;2023-05-29T00:54:54;6.90;;;3.50;;
30934;SDS011;51033;42.648;23.292;2023-05-29T00:57:20;18.65;;;3.33;;
30934;SDS011;51033;42.648;23.292;2023-05-29T00:59:47;7.32;;;4.13;;
30934;SDS011;51033;42.648;23.292;2023-05-29T01:02:14;6.35;;;3.05;;
30934;SDS011;51033;42.648;23.292;2023-05-29T01:04:41;6.25;;;4.10;;
30934;SDS011;51033;42.648;23.292;2023-05-29T01:07:10;4.22;;;3.50;;
30934;SDS011;51033;42.648;23.292;2023-05-29T01:09:35;6.00;;;3.80;;
30934;SDS011;51033;42.648;23.292;2023-05-29T01:17:14;6.05;;;3.65;;
30934;SDS011;51033;42.648;23.292;2023-05-29T01:19:47;5.55;;;4.00;;
30934;SDS011;51033;42.648;23.292;2023-05-29T01:22:34;13.65;;;4.05;;
30934;SDS011;51033;42.648;23.292;2023-05-29T01:25:11;5.53;;;4.35;;
30934;SDS011;51033;42.648;23.292;2023-05-29T01:27:46;5.97;;;3.60;;
30934;SDS011;51033;42.648;23.292;2023-05-29T01:30:12;5.57;;;4.97;;
30934;SDS011;51033;42.648;23.292;2023-05-29T01:32:40;5.95;;;3.80;;
30934;SDS011;51033;42.648;23.292;2023-05-29T01:35:07;7.20;;;4.18;;
30934;SDS011;51033;42.648;23.292;2023-05-29T01:37:33;6.35;;;3.63;;
30934;SDS011;51033;42.648;23.292;2023-05-29T01:39:59;5.15;;;4.63;;
30934;SDS011;51033;42.648;23.292;2023-05-29T01:42:26;4.70;;;3.60;;
30934;SDS011;51033;42.648;23.292;2023-05-29T01:44:55;6.75;;;4.72;;
30934;SDS011;51033;42.648;23.292;2023-05-29T01:47:22;5.55;;;3.10;;
30934;SDS011;51033;42.648;23.292;2023-05-29T01:49:49;6.15;;;3.78;;
30934;SDS011;51033;42.648;23.292;2023-05-29T01:52:16;7.10;;;4.25;;
30934;SDS011;51033;42.648;23.292;2023-05-29T01:54:42;9.25;;;4.10;;
30934;SDS011;51033;42.648;23.292;2023-05-29T01:57:07;6.07;;;4.70;;
30934;SDS011;51033;42.648;23.292;2023-05-29T01:59:33;6.57;;;4.72;;
30934;SDS011;51033;42.648;23.292;2023-05-29T02:02:09;7.68;;;4.70;;
30934;SDS011;51033;42.648;23.292;2023-05-29T02:04:35;4.53;;;3.53;;
30934;SDS011;51033;42.648;23.292;2023-05-29T02:07:00;7.00;;;4.00;;
30934;SDS011;51033;42.648;23.292;2023-05-29T02:09:26;5.45;;;3.65;;
30934;SDS011;51033;42.648;23.292;2023-05-29T02:11:51;6.32;;;5.20;;
30934;SDS011;51033;42.648;23.292;2023-05-29T02:14:17;6.63;;;4.97;;
30934;SDS011;51033;42.648;23.292;2023-05-29T02:16:43;5.88;;;4.50;;
30934;SDS011;51033;42.648;23.292;2023-05-29T02:19:09;6.32;;;4.85;;
30934;SDS011;51033;42.648;23.292;2023-05-29T02:21:37;6.13;;;4.05;;
30934;SDS011;51033;42.648;23.292;2023-05-29T02:24:04;8.02;;;4.78;;
30934;SDS011;51033;42.648;23.292;2023-05-29T02:26:30;6.45;;;5.43;;
30934;SDS011;51033;42.648;23.292;2023-05-29T02:28:56;7.30;;;5.43;;
30934;SDS011;51033;42.648;23.292;2023-05-29T02:31:21;5.85;;;5.00;;
30934;SDS011;51033;42.648;23.292;2023-05-29T02:33:47;5.38;;;4.57;;
30934;SDS011;51033;42.648;23.292;2023-05-29T02:36:13;9.48;;;4.47;;
30934;SDS011;51033;42.648;23.292;2023-05-29T02:38:38;6.47;;;3.78;;
30934;SDS011;51033;42.648;23.292;2023-05-29T02:41:04;6.68;;;4.38;;
30934;SDS011;51033;42.648;23.292;2023-05-29T02:43:30;5.45;;;4.32;;
30934;SDS011;51033;42.648;23.292;2023-05-29T02:45:56;7.30;;;4.72;;
30934;SDS011;51033;42.648;23.292;2023-05-29T02:48:21;7.18;;;4.22;;
30934;SDS011;51033;42.648;23.292;2023-05-29T02:50:47;6.00;;;3.88;;
30934;SDS011;51033;42.648;23.292;2023-05-29T02:53:12;4.80;;;3.97;;
30934;SDS011;51033;42.648;23.292;2023-05-29T02:55:38;6.25;;;4.57;;
30934;SDS011;51033;42.648;23.292;2023-05-29T02:58:03;8.13;;;3.92;;
30934;SDS011;51033;42.648;23.292;2023-05-29T03:00:29;6.85;;;4.45;;
30934;SDS011;51033;42.648;23.292;2023-05-29T03:02:54;4.97;;;4.47;;
30934;SDS011;51033;42.648;23.292;2023-05-29T03:05:20;5.82;;;3.92;;
30934;SDS011;51033;42.648;23.292;2023-05-29T03:07:45;5.18;;;3.53;;
30934;SDS011;51033;42.648;23.292;2023-05-29T03:10:11;5.35;;;3.72;;
30934;SDS011;51033;42.648;23.292;2023-05-29T03:12:36;4.80;;;3.70;;
30934;SDS011;51033;42.648;23.292;2023-05-29T03:15:04;4.10;;;3.70;;
30934;SDS011;51033;42.648;23.292;2023-05-29T03:17:30;4.85;;;3.70;;
30934;SDS011;51033;42.648;23.292;2023-05-29T03:19:55;4.68;;;3.50;;
30934;SDS011;51033;42.648;23.292;2023-05-29T03:22:20;6.75;;;5.15;;
30934;SDS011;51033;42.648;23.292;2023-05-29T03:24:46;4.10;;;3.67;;
30934;SDS011;51033;42.648;23.292;2023-05-29T03:27:11;7.68;;;4.20;;
30934;SDS011;51033;42.648;23.292;2023-05-29T03:29:36;4.68;;;3.80;;
30934;SDS011;51033;42.648;23.292;2023-05-29T03:32:02;6.00;;;4.30;;
30934;SDS011;51033;42.648;23.292;2023-05-29T03:34:27;6.50;;;4.25;;
30934;SDS011;51033;42.648;23.292;2023-05-29T03:36:53;6.43;;;4.72;;
30934;SDS011;51033;42.648;23.292;2023-05-29T03:39:19;8.55;;;5.13;;
30934;SDS011;51033;42.648;23.292;2023-05-29T03:41:45;8.23;;;4.20;;
30934;SDS011;51033;42.648;23.292;2023-05-29T03:44:10;5.00;;;3.95;;
30934;SDS011;51033;42.648;23.292;2023-05-29T03:46:36;7.28;;;4.70;;
30934;SDS011;51033;42.648;23.292;2023-05-29T03:49:01;5.55;;;4.05;;
30934;SDS011;51033;42.648;23.292;2023-05-29T03:51:27;5.28;;;3.75;;
30934;SDS011;51033;42.648;23.292;2023-05-29T03:53:52;4.50;;;3.65;;
30934;SDS011;51033;42.648;23.292;2023-05-29T03:56:17;7.70;;;4.30;;
30934;SDS011;51033;42.648;23.292;2023-05-29T03:58:43;6.07;;;3.58;;
30934;SDS011;51033;42.648;23.292;2023-05-29T04:01:08;6.25;;;3.85;;
30934;SDS011;51033;42.648;23.292;2023-05-29T04:03:34;5.00;;;3.95;;
30934;SDS011;51033;42.648;23.292;2023-05-29T04:06:00;8.88;;;3.75;;
30934;SDS011;51033;42.648;23.292;2023-05-29T04:08:25;5.80;;;3.85;;
30934;SDS011;51033;42.648;23.292;2023-05-29T04:10:51;4.10;;;3.28;;
30934;SDS011;51033;42.648;23.292;2023-05-29T04:13:19;5.95;;;4.28;;
30934;SDS011;51033;42.648;23.292;2023-05-29T04:15:44;5.72;;;3.92;;
30934;SDS011;51033;42.648;23.292;2023-05-29T04:18:10;5.45;;;3.88;;
30934;SDS011;51033;42.648;23.292;2023-05-29T04:20:35;5.05;;;4.43;;
30934;SDS011;51033;42.648;23.292;2023-05-29T04:23:01;6.95;;;3.67;;
30934;SDS011;51033;42.648;23.292;2023-05-29T04:25:26;4.38;;;3.67;;
30934;SDS011;51033;42.648;23.292;2023-05-29T04:27:51;4.68;;;4.00;;
30934;SDS011;51033;42.648;23.292;2023-05-29T04:30:17;4.57;;;3.85;;
30934;SDS011;51033;42.648;23.292;2023-05-29T04:32:42;9.15;;;4.18;;
30934;SDS011;51033;42.648;23.292;2023-05-29T04:35:08;9.35;;;4.13;;
30934;SDS011;51033;42.648;23.292;2023-05-29T04:37:34;8.93;;;4.68;;
30934;SDS011;51033;42.648;23.292;2023-05-29T04:40:06;6.60;;;4.50;;
30934;SDS011;51033;42.648;23.292;2023-05-29T04:42:36;13.23;;;5.25;;
30934;SDS011;51033;42.648;23.292;2023-05-29T04:45:02;11.90;;;5.55;;
30934;SDS011;51033;42.648;23.292;2023-05-29T04:47:31;13.65;;;5.88;;
30934;SDS011;51033;42.648;23.292;2023-05-29T04:50:01;9.98;;;6.13;;
30934;SDS011;51033;42.648;23.292;2023-05-29T04:52:27;13.63;;;6.50;;
30934;SDS011;51033;42.648;23.292;2023-05-29T04:54:53;12.88;;;5.88;;
30934;SDS011;51033;42.648;23.292;2023-05-29T04:57:19;11.43;;;6.75;;
30934;SDS011;51033;42.648;23.292;2023-05-29T04:59:45;11.77;;;5.60;;
30934;SDS011;51033;42.648;23.292;2023-05-29T05:02:10;8.52;;;6.20;;
30934;SDS011;51033;42.648;23.292;2023-05-29T05:04:36;8.43;;;5.38;;
30934;SDS011;51033;42.648;23.292;2023-05-29T05:07:01;10.35;;;5.93;;
30934;SDS011;51033;42.648;23.292;2023-05-29T05:09:28;8.82;;;4.75;;
30934;SDS011;51033;42.648;23.292;2023-05-29T05:11:54;8.05;;;5.57;;
30934;SDS011;51033;42.648;23.292;2023-05-29T05:14:19;10.93;;;6.50;;
30934;SDS011;51033;42.648;23.292;2023-05-29T05:16:45;16.30;;;7.22;;
30934;SDS011;51033;42.648;23.292;2023-05-29T05:19:10;17.98;;;7.28;;
30934;SDS011;51033;42.648;23.292;2023-05-29T05:21:36;10.80;;;6.75;;
30934;SDS011;51033;42.648;23.292;2023-05-29T05:24:01;17.50;;;7.07;;
30934;SDS011;51033;42.648;23.292;2023-05-29T05:26:27;14.07;;;6.60;;
30934;SDS011;51033;42.648;23.292;2023-05-29T05:28:52;8.98;;;6.47;;
30934;SDS011;51033;42.648;23.292;2023-05-29T05:31:18;12.90;;;5.97;;
30934;SDS011;51033;42.648;23.292;2023-05-29T05:33:43;10.88;;;7.20;;
30934;SDS011;51033;42.648;23.292;2023-05-29T05:36:09;13.23;;;7.03;;
30934;SDS011;51033;42.648;23.292;2023-05-29T05:38:35;9.20;;;6.20;;
30934;SDS011;51033;42.648;23.292;2023-05-29T05:41:00;9.23;;;5.75;;
30934;SDS011;51033;42.648;23.292;2023-05-29T05:43:26;12.00;;;5.97;;
30934;SDS011;51033;42.648;23.292;2023-05-29T05:45:52;6.03;;;5.38;;
30934;SDS011;51033;42.648;23.292;2023-05-29T05:48:17;12.95;;;6.05;;
30934;SDS011;51033;42.648;23.292;2023-05-29T05:50:43;8.20;;;5.63;;
30934;SDS011;51033;42.648;23.292;2023-05-29T05:53:08;8.20;;;5.90;;
30934;SDS011;51033;42.648;23.292;2023-05-29T05:55:33;13.35;;;5.70;;
30934;SDS011;51033;42.648;23.292;2023-05-29T05:57:59;10.68;;;5.50;;
30934;SDS011;51033;42.648;23.292;2023-05-29T06:00:24;13.68;;;6.30;;
30934;SDS011;51033;42.648;23.292;2023-05-29T06:02:50;8.10;;;5.45;;
30934;SDS011;51033;42.648;23.292;2023-05-29T06:05:16;8.35;;;6.78;;
30934;SDS011;51033;42.648;23.292;2023-05-29T06:07:42;9.98;;;5.60;;
30934;SDS011;51033;42.648;23.292;2023-05-29T06:10:07;7.47;;;5.25;;
30934;SDS011;51033;42.648;23.292;2023-05-29T06:12:33;7.13;;;5.22;;
30934;SDS011;51033;42.648;23.292;2023-05-29T06:14:59;8.85;;;5.10;;
30934;SDS011;51033;42.648;23.292;2023-05-29T06:17:25;8.82;;;4.95;;
30934;SDS011;51033;42.648;23.292;2023-05-29T06:19:50;7.18;;;4.93;;
30934;SDS011;51033;42.648;23.292;2023-05-29T06:22:16;17.10;;;6.78;;
30934;SDS011;51033;42.648;23.292;2023-05-29T06:24:41;7.75;;;5.35;;
30934;SDS011;51033;42.648;23.292;2023-05-29T06:27:06;7.68;;;4.13;;
30934;SDS011;51033;42.648;23.292;2023-05-29T06:29:32;6.28;;;4.20;;
30934;SDS011;51033;42.648;23.292;2023-05-29T06:31:58;10.90;;;5.50;;
30934;SDS011;51033;42.648;23.292;2023-05-29T06:34:23;7.18;;;4.53;;
30934;SDS011;51033;42.648;23.292;2023-05-29T06:36:48;7.53;;;4.55;;
30934;SDS011;51033;42.648;23.292;2023-05-29T06:39:14;8.27;;;5.18;;
30934;SDS011;51033;42.648;23.292;2023-05-29T06:41:40;7.38;;;5.18;;
30934;SDS011;51033;42.648;23.292;2023-05-29T06:44:06;7.13;;;3.95;;
30934;SDS011;51033;42.648;23.292;2023-05-29T06:46:31;5.90;;;3.35;;
30934;SDS011;51033;42.648;23.292;2023-05-29T06:48:57;10.85;;;4.68;;
30934;SDS011;51033;42.648;23.292;2023-05-29T06:51:22;8.00;;;5.32;;
30934;SDS011;51033;42.648;23.292;2023-05-29T06:53:48;10.15;;;4.30;;
30934;SDS011;51033;42.648;23.292;2023-05-29T06:56:13;7.50;;;4.32;;
30934;SDS011;51033;42.648;23.292;2023-05-29T06:58:39;7.47;;;4.82;;
30934;SDS011;51033;42.648;23.292;2023-05-29T07:01:05;6.20;;;3.30;;
30934;SDS011;51033;42.648;23.292;2023-05-29T07:03:30;2.45;;;1.73;;
30934;SDS011;51033;42.648;23.292;2023-05-29T07:05:56;2.83;;;1.98;;
30934;SDS011;51033;42.648;23.292;2023-05-29T07:08:22;3.38;;;1.85;;
30934;SDS011;51033;42.648;23.292;2023-05-29T07:10:48;4.63;;;2.58;;
30934;SDS011;51033;42.648;23.292;2023-05-29T07:13:14;4.43;;;2.20;;
30934;SDS011;51033;42.648;23.292;2023-05-29T07:15:42;3.20;;;2.65;;
30934;SDS011;51033;42.648;23.292;2023-05-29T07:18:07;6.18;;;3.78;;
30934;SDS011;51033;42.648;23.292;2023-05-29T07:20:32;4.30;;;3.10;;
30934;SDS011;51033;42.648;23.292;2023-05-29T07:22:58;6.75;;;3.17;;
30934;SDS011;51033;42.648;23.292;2023-05-29T07:25:23;6.15;;;3.85;;
30934;SDS011;51033;42.648;23.292;2023-05-29T07:27:49;7.30;;;3.70;;
30934;SDS011;51033;42.648;23.292;2023-05-29T07:30:14;5.78;;;3.22;;
30934;SDS011;51033;42.648;23.292;2023-05-29T07:32:40;7.25;;;2.58;;
30934;SDS011;51033;42.648;23.292;2023-05-29T07:35:06;4.35;;;2.80;;
30934;SDS011;51033;42.648;23.292;2023-05-29T07:37:31;6.75;;;3.85;;
30934;SDS011;51033;42.648;23.292;2023-05-29T07:39:57;6.30;;;3.47;;
30934;SDS011;51033;42.648;23.292;2023-05-29T07:42:23;5.55;;;3.42;;
30934;SDS011;51033;42.648;23.292;2023-05-29T07:44:48;5.35;;;2.88;;
30934;SDS011;51033;42.648;23.292;2023-05-29T07:47:14;4.72;;;3.00;;
30934;SDS011;51033;42.648;23.292;2023-05-29T07:49:40;6.00;;;3.65;;
30934;SDS011;51033;42.648;23.292;2023-05-29T07:52:05;6.75;;;3.75;;
30934;SDS011;51033;42.648;23.292;2023-05-29T07:54:31;8.10;;;3.25;;
30934;SDS011;51033;42.648;23.292;2023-05-29T07:56:58;7.32;;;2.70;;
30934;SDS011;51033;42.648;23.292;2023-05-29T07:59:25;3.80;;;2.92;;
30934;SDS011;51033;42.648;23.292;2023-05-29T08:01:51;5.03;;;3.58;;
30934;SDS011;51033;42.648;23.292;2023-05-29T08:04:17;5.90;;;3.55;;
30934;SDS011;51033;42.648;23.292;2023-05-29T08:06:42;10.52;;;3.88;;
30934;SDS011;51033;42.648;23.292;2023-05-29T08:09:08;5.45;;;3.53;;
30934;SDS011;51033;42.648;23.292;2023-05-29T08:11:35;5.60;;;3.42;;
30934;SDS011;51033;42.648;23.292;2023-05-29T08:14:01;6.82;;;3.10;;
30934;SDS011;51033;42.648;23.292;2023-05-29T08:16:27;3.63;;;2.97;;
30934;SDS011;51033;42.648;23.292;2023-05-29T08:18:52;6.40;;;2.88;;
30934;SDS011;51033;42.648;23.292;2023-05-29T08:21:18;3.58;;;2.67;;
30934;SDS011;51033;42.648;23.292;2023-05-29T08:23:44;8.00;;;3.65;;
30934;SDS011;51033;42.648;23.292;2023-05-29T08:26:09;4.82;;;2.78;;
30934;SDS011;51033;42.648;23.292;2023-05-29T08:28:35;7.40;;;2.83;;
30934;SDS011;51033;42.648;23.292;2023-05-29T08:31:00;4.15;;;3.17;;
30934;SDS011;51033;42.648;23.292;2023-05-29T08:33:26;3.53;;;2.70;;
30934;SDS011;51033;42.648;23.292;2023-05-29T08:35:51;5.85;;;3.10;;
30934;SDS011;51033;42.648;23.292;2023-05-29T08:38:17;5.80;;;2.70;;
30934;SDS011;51033;42.648;23.292;2023-05-29T08:40:42;6.10;;;2.80;;
30934;SDS011;51033;42.648;23.292;2023-05-29T08:45:39;3.10;;;2.30;;
30934;SDS011;51033;42.648;23.292;2023-05-29T08:48:10;2.60;;;2.40;;
30934;SDS011;51033;42.648;23.292;2023-05-29T08:50:43;4.20;;;2.60;;
30934;SDS011;51033;42.648;23.292;2023-05-29T08:53:12;4.63;;;3.35;;
30934;SDS011;51033;42.648;23.292;2023-05-29T08:55:41;4.70;;;2.88;;
30934;SDS011;51033;42.648;23.292;2023-05-29T08:58:07;4.03;;;2.42;;
30934;SDS011;51033;42.648;23.292;2023-05-29T09:00:33;6.35;;;2.53;;
30934;SDS011;51033;42.648;23.292;2023-05-29T09:02:59;6.15;;;2.60;;
30934;SDS011;51033;42.648;23.292;2023-05-29T09:05:25;4.85;;;2.47;;
30934;SDS011;51033;42.648;23.292;2023-05-29T09:07:54;3.17;;;2.67;;
30934;SDS011;51033;42.648;23.292;2023-05-29T09:10:20;3.00;;;2.38;;
30934;SDS011;51033;42.648;23.292;2023-05-29T09:12:47;4.10;;;2.72;;
30934;SDS011;51033;42.648;23.292;2023-05-29T09:17:48;6.18;;;3.03;;
30934;SDS011;51033;42.648;23.292;2023-05-29T09:20:18;4.78;;;2.50;;
30934;SDS011;51033;42.648;23.292;2023-05-29T09:23:06;5.72;;;2.65;;
30934;SDS011;51033;42.648;23.292;2023-05-29T09:25:35;3.92;;;2.60;;
30934;SDS011;51033;42.648;23.292;2023-05-29T09:28:06;3.05;;;2.75;;
30934;SDS011;51033;42.648;23.292;2023-05-29T09:33:02;5.80;;;2.40;;
30934;SDS011;51033;42.648;23.292;2023-05-29T09:35:34;5.68;;;2.45;;
30934;SDS011;51033;42.648;23.292;2023-05-29T09:38:07;6.18;;;3.88;;
30934;SDS011;51033;42.648;23.292;2023-05-29T09:40:35;4.80;;;2.55;;
30934;SDS011;51033;42.648;23.292;2023-05-29T09:43:02;5.03;;;2.95;;
30934;SDS011;51033;42.648;23.292;2023-05-29T09:45:32;2.85;;;2.65;;
30934;SDS011;51033;42.648;23.292;2023-05-29T09:47:58;4.60;;;2.85;;
30934;SDS011;51033;42.648;23.292;2023-05-29T09:50:26;3.03;;;2.70;;
30934;SDS011;51033;42.648;23.292;2023-05-29T09:52:53;6.88;;;3.15;;
30934;SDS011;51033;42.648;23.292;2023-05-29T09:55:21;4.00;;;3.00;;
30934;SDS011;51033;42.648;23.292;2023-05-29T09:57:48;4.10;;;2.90;;
30934;SDS011;51033;42.648;23.292;2023-05-29T10:00:15;5.25;;;3.17;;
30934;SDS011;51033;42.648;23.292;2023-05-29T10:02:42;3.70;;;3.40;;
30934;SDS011;51033;42.648;23.292;2023-05-29T10:05:07;3.47;;;2.85;;
30934;SDS011;51033;42.648;23.292;2023-05-29T10:07:35;5.78;;;2.72;;
30934;SDS011;51033;42.648;23.292;2023-05-29T10:10:03;4.63;;;2.70;;
30934;SDS011;51033;42.648;23.292;2023-05-29T10:12:31;7.90;;;2.88;;
30934;SDS011;51033;42.648;23.292;2023-05-29T10:14:59;4.85;;;2.50;;
30934;SDS011;51033;42.648;23.292;2023-05-29T10:17:28;3.50;;;2.95;;
30934;SDS011;51033;42.648;23.292;2023-05-29T10:19:57;5.25;;;2.42;;
30934;SDS011;51033;42.648;23.292;2023-05-29T10:22:25;3.15;;;2.67;;
30934;SDS011;51033;42.648;23.292;2023-05-29T10:24:53;3.25;;;2.65;;
30934;SDS011;51033;42.648;23.292;2023-05-29T10:27:19;13.98;;;3.20;;
30934;SDS011;51033;42.648;23.292;2023-05-29T10:29:48;6.53;;;3.03;;
30934;SDS011;51033;42.648;23.292;2023-05-29T10:37:35;4.85;;;3.25;;
30934;SDS011;51033;42.648;23.292;2023-05-29T10:40:09;5.75;;;2.50;;
30934;SDS011;51033;42.648;23.292;2023-05-29T10:42:49;5.50;;;2.95;;
30934;SDS011;51033;42.648;23.292;2023-05-29T10:53:01;4.22;;;3.00;;
30934;SDS011;51033;42.648;23.292;2023-05-29T10:55:34;3.33;;;2.88;;
30934;SDS011;51033;42.648;23.292;2023-05-29T10:58:06;5.00;;;3.17;;
30934;SDS011;51033;42.648;23.292;2023-05-29T11:00:33;3.42;;;3.13;;
30934;SDS011;51033;42.648;23.292;2023-05-29T11:03:02;5.60;;;3.30;;
30934;SDS011;51033;42.648;23.292;2023-05-29T11:05:28;4.72;;;3.08;;
30934;SDS011;51033;42.648;23.292;2023-05-29T11:07:58;5.25;;;3.53;;
30934;SDS011;51033;42.648;23.292;2023-05-29T11:13:09;6.93;;;3.50;;
30934;SDS011;51033;42.648;23.292;2023-05-29T11:15:35;9.48;;;4.20;;
30934;SDS011;51033;42.648;23.292;2023-05-29T11:18:05;7.97;;;4.28;;
30934;SDS011;51033;42.648;23.292;2023-05-29T11:20:50;5.43;;;4.20;;
30934;SDS011;51033;42.648;23.292;2023-05-29T11:23:22;11.93;;;4.85;;
30934;SDS011;51033;42.648;23.292;2023-05-29T11:25:50;6.30;;;4.13;;
30934;SDS011;51033;42.648;23.292;2023-05-29T11:28:16;7.53;;;4.57;;
30934;SDS011;51033;42.648;23.292;2023-05-29T11:30:45;6.07;;;3.90;;
30934;SDS011;51033;42.648;23.292;2023-05-29T11:33:15;4.60;;;3.00;;
30934;SDS011;51033;42.648;23.292;2023-05-29T11:35:50;5.90;;;3.83;;
30934;SDS011;51033;42.648;23.292;2023-05-29T11:38:27;9.85;;;3.13;;
30934;SDS011;51033;42.648;23.292;2023-05-29T11:40:56;5.43;;;2.78;;
30934;SDS011;51033;42.648;23.292;2023-05-29T11:43:23;3.78;;;3.00;;
30934;SDS011;51033;42.648;23.292;2023-05-29T11:45:49;6.05;;;3.58;;
30934;SDS011;51033;42.648;23.292;2023-05-29T11:48:15;5.18;;;3.65;;
30934;SDS011;51033;42.648;23.292;2023-05-29T11:50:41;3.85;;;3.28;;
30934;SDS011;51033;42.648;23.292;2023-05-29T11:53:06;3.65;;;3.03;;
30934;SDS011;51033;42.648;23.292;2023-05-29T11:55:33;5.90;;;3.60;;
30934;SDS011;51033;42.648;23.292;2023-05-29T11:57:59;5.03;;;3.40;;
30934;SDS011;51033;42.648;23.292;2023-05-29T12:00:26;3.33;;;3.03;;
30934;SDS011;51033;42.648;23.292;2023-05-29T12:02:57;5.20;;;3.40;;
30934;SDS011;51033;42.648;23.292;2023-05-29T12:05:23;4.75;;;3.72;;
30934;SDS011;51033;42.648;23.292;2023-05-29T12:07:52;5.22;;;3.28;;
30934;SDS011;51033;42.648;23.292;2023-05-29T12:10:21;8.50;;;3.97;;
30934;SDS011;51033;42.648;23.292;2023-05-29T12:12:51;7.97;;;4.22;;
30934;SDS011;51033;42.648;23.292;2023-05-29T12:15:18;5.40;;;3.63;;
30934;SDS011;51033;42.648;23.292;2023-05-29T12:17:45;6.32;;;4.43;;
30934;SDS011;51033;42.648;23.292;2023-05-29T12:20:11;5.35;;;3.75;;
30934;SDS011;51033;42.648;23.292;2023-05-29T12:22:39;4.00;;;2.90;;
30934;SDS011;51033;42.648;23.292;2023-05-29T12:27:32;7.95;;;3.53;;
30934;SDS011;51033;42.648;23.292;2023-05-29T12:30:03;5.80;;;4.20;;
30934;SDS011;51033;42.648;23.292;2023-05-29T12:32:39;9.50;;;5.05;;
30934;SDS011;51033;42.648;23.292;2023-05-29T12:35:25;9.73;;;5.90;;
30934;SDS011;51033;42.648;23.292;2023-05-29T12:37:59;6.20;;;4.28;;
30934;SDS011;51033;42.648;23.292;2023-05-29T12:40:30;5.47;;;4.13;;
30934;SDS011;51033;42.648;23.292;2023-05-29T12:43:02;5.07;;;3.45;;
30934;SDS011;51033;42.648;23.292;2023-05-29T12:45:30;6.28;;;3.55;;
30934;SDS011;51033;42.648;23.292;2023-05-29T12:47:58;8.60;;;4.80;;
30934;SDS011;51033;42.648;23.292;2023-05-29T12:50:30;7.65;;;3.83;;
30934;SDS011;51033;42.648;23.292;2023-05-29T12:53:03;6.97;;;4.03;;
30934;SDS011;51033;42.648;23.292;2023-05-29T12:55:30;6.88;;;4.20;;
30934;SDS011;51033;42.648;23.292;2023-05-29T12:58:02;7.25;;;3.90;;
30934;SDS011;51033;42.648;23.292;2023-05-29T13:00:28;8.93;;;4.22;;
30934;SDS011;51033;42.648;23.292;2023-05-29T13:02:54;12.52;;;4.50;;
30934;SDS011;51033;42.648;23.292;2023-05-29T13:05:19;3.90;;;3.55;;
30934;SDS011;51033;42.648;23.292;2023-05-29T13:07:47;5.85;;;3.40;;
30934;SDS011;51033;42.648;23.292;2023-05-29T13:10:14;6.13;;;4.00;;
30934;SDS011;51033;42.648;23.292;2023-05-29T13:12:43;7.90;;;4.68;;
30934;SDS011;51033;42.648;23.292;2023-05-29T13:15:09;5.82;;;4.28;;
30934;SDS011;51033;42.648;23.292;2023-05-29T13:17:36;6.68;;;3.72;;
30934;SDS011;51033;42.648;23.292;2023-05-29T13:20:02;6.95;;;4.78;;
30934;SDS011;51033;42.648;23.292;2023-05-29T13:22:31;7.32;;;4.45;;
30934;SDS011;51033;42.648;23.292;2023-05-29T13:24:57;4.75;;;3.28;;
30934;SDS011;51033;42.648;23.292;2023-05-29T13:27:24;6.15;;;3.25;;
30934;SDS011;51033;42.648;23.292;2023-05-29T13:29:50;5.22;;;3.38;;
30934;SDS011;51033;42.648;23.292;2023-05-29T13:32:16;5.50;;;3.20;;
30934;SDS011;51033;42.648;23.292;2023-05-29T13:34:42;4.65;;;3.97;;
30934;SDS011;51033;42.648;23.292;2023-05-29T13:37:07;4.40;;;2.85;;
30934;SDS011;51033;42.648;23.292;2023-05-29T13:39:33;7.80;;;3.65;;
30934;SDS011;51033;42.648;23.292;2023-05-29T13:41:58;5.05;;;3.20;;
30934;SDS011;51033;42.648;23.292;2023-05-29T13:44:23;6.63;;;3.38;;
30934;SDS011;51033;42.648;23.292;2023-05-29T13:46:49;4.68;;;3.65;;
30934;SDS011;51033;42.648;23.292;2023-05-29T13:49:15;4.45;;;3.50;;
30934;SDS011;51033;42.648;23.292;2023-05-29T13:51:41;3.85;;;3.45;;
30934;SDS011;51033;42.648;23.292;2023-05-29T13:54:06;10.63;;;4.15;;
30934;SDS011;51033;42.648;23.292;2023-05-29T13:56:32;5.75;;;3.70;;
30934;SDS011;51033;42.648;23.292;2023-05-29T13:58:57;5.88;;;3.92;;
30934;SDS011;51033;42.648;23.292;2023-05-29T14:01:28;7.65;;;4.55;;
30934;SDS011;51033;42.648;23.292;2023-05-29T14:03:54;4.97;;;4.30;;
30934;SDS011;51033;42.648;23.292;2023-05-29T14:06:19;4.38;;;3.83;;
30934;SDS011;51033;42.648;23.292;2023-05-29T14:08:44;5.07;;;3.70;;
30934;SDS011;51033;42.648;23.292;2023-05-29T14:11:10;7.07;;;4.35;;
30934;SDS011;51033;42.648;23.292;2023-05-29T14:13:35;4.28;;;3.58;;
30934;SDS011;51033;42.648;23.292;2023-05-29T14:16:03;3.97;;;3.58;;
30934;SDS011;51033;42.648;23.292;2023-05-29T14:18:28;7.20;;;4.22;;
30934;SDS011;51033;42.648;23.292;2023-05-29T14:20:54;11.05;;;5.00;;
30934;SDS011;51033;42.648;23.292;2023-05-29T14:23:19;4.68;;;3.63;;
30934;SDS011;51033;42.648;23.292;2023-05-29T14:25:45;6.68;;;2.53;;
30934;SDS011;51033;42.648;23.292;2023-05-29T14:28:10;9.10;;;1.92;;
30934;SDS011;51033;42.648;23.292;2023-05-29T14:30:36;4.28;;;1.67;;
30934;SDS011;51033;42.648;23.292;2023-05-29T14:33:03;4.03;;;1.75;;
30934;SDS011;51033;42.648;23.292;2023-05-29T14:35:28;2.20;;;1.80;;
30934;SDS011;51033;42.648;23.292;2023-05-29T14:37:54;3.53;;;2.22;;
30934;SDS011;51033;42.648;23.292;2023-05-29T14:40:20;3.53;;;2.10;;
30934;SDS011;51033;42.648;23.292;2023-05-29T14:42:45;4.20;;;2.70;;
30934;SDS011;51033;42.648;23.292;2023-05-29T14:45:11;5.18;;;1.60;;
30934;SDS011;51033;42.648;23.292;2023-05-29T14:47:36;4.18;;;1.95;;
30934;SDS011;51033;42.648;23.292;2023-05-29T14:50:02;3.35;;;1.80;;
30934;SDS011;51033;42.648;23.292;2023-05-29T14:52:27;2.08;;;1.88;;
30934;SDS011;51033;42.648;23.292;2023-05-29T14:54:53;4.25;;;1.35;;
30934;SDS011;51033;42.648;23.292;2023-05-29T14:57:18;4.57;;;2.05;;
30934;SDS011;51033;42.648;23.292;2023-05-29T14:59:44;2.63;;;1.83;;
30934;SDS011;51033;42.648;23.292;2023-05-29T15:02:09;5.53;;;2.00;;